Nathaniel B. Palmer — WBP3210 — position and weather

sailwx.info

Track history (hours):
 
Tides and Currents Weather Stations Pressure Air Temp Water Temp Dewpoint Dewpoint Depression Visibility Wind Speed Wind Dir Waves Ship Positions

Oceanographic research ship Nathaniel B. Palmer (USA)

Contact: Ethan Norris, ethan.norris.contractor@usap.gov

Detailed information on ship capabilities available from University of Delaware's Ocean Information Center and ARCUS's ALIAS (Arctic Logistics Information and Support) project.

Owner: OFFSHORE SERVICE VESSELS, GALLIANO, LA. More information available from US FCC via Universal Licensing System and Coast Guard Vessel Documentation Center.

Last reported at 2017-Mar-23 17:00 UTC. Time now 2017-Mar-23 18:14 UTC.
Position S 36°48' E 174°42'.

Type: Other ship. MMSI: 366610000.

Wind from 250 at 2 knots

Barometer 1018.3 mb
Air temperature 17.8 ° C
Water temperature -0.0 ° C

Date/timePositionNaut miles runAvg speedWind from/ knotsBaromVisibWave heightAir tempDewpointWater temp
2017-Mar-23 17:00S 36°48' E 174°42'0 0.0 250 / 21018.3 17.8 -0.0
2017-Mar-23 16:00S 36°48' E 174°42'0 0.0 280 / 41018.4 17.6 -0.0
2017-Mar-23 15:00S 36°48' E 174°42'0 0.0 220 / 21018.6 18.1 -0.0
2017-Mar-23 14:00S 36°48' E 174°42'0 0.0 280 / 21019.2 17.7 -0.0
2017-Mar-23 13:00S 36°48' E 174°42'0 0.0 290 / 31019.3 17.8 -0.0
2017-Mar-23 12:00S 36°48' E 174°42'0 0.0 290 / 41019.6 18.0 -0.0
2017-Mar-23 11:00S 36°48' E 174°42'0 0.0 250 / 31019.7 18.4 -0.0
2017-Mar-23 10:00S 36°48' E 174°42'0 0.0 230 / 41019.5 18.7 -0.0
2017-Mar-23 09:00S 36°48' E 174°42'0 0.0 240 / 51019.2 19.0 -0.0
2017-Mar-23 08:00S 36°48' E 174°42'0 0.0 240 / 61018.6 19.3 -0.0
2017-Mar-23 07:00S 36°48' E 174°42'0 0.0 240 / 81018.1 20.1 -0.0
2017-Mar-23 06:00S 36°48' E 174°42'0 0.0 240 / 81017.7 21.5 -0.0
2017-Mar-23 05:00S 36°48' E 174°42'0 0.0 250 / 101017.3 21.6 -0.0
2017-Mar-23 04:00S 36°48' E 174°42'0 0.0 240 / 101017.4 22.0 -0.0
2017-Mar-23 03:00S 36°48' E 174°42'0 0.0 240 / 91017.7 22.1 -0.0
2017-Mar-23 02:00S 36°48' E 174°42'0 0.0 230 / 101018.0 21.8 -0.0
2017-Mar-23 00:00S 36°48' E 174°42'0 0.0 240 / 101018.4 21.8 -0.0
2017-Mar-22 23:00S 36°48' E 174°42'0 0.0 260 / 61018.4 21.1 -0.0
2017-Mar-22 22:00S 36°48' E 174°42'0 0.0 270 / 81018.0 20.4 -0.0
2017-Mar-22 21:00S 36°48' E 174°42'0 0.0 300 / 91017.8 20.1 -0.0
2017-Mar-22 20:00S 36°48' E 174°42'0 0.0 290 / 81017.4 20.1 -0.0
2017-Mar-22 19:00S 36°48' E 174°42'0 0.0 300 / 101016.8 19.5 -0.0
2017-Mar-22 18:00S 36°48' E 174°42'0 0.0 310 / 101016.5 19.9 -0.0
2017-Mar-22 17:00S 36°48' E 174°42'0 0.0 300 / 71016.4 19.9 -0.0
2017-Mar-22 16:00S 36°48' E 174°42'0 0.0 290 / 71016.4 19.6 -0.0
2017-Mar-22 15:00S 36°48' E 174°42'0 0.0 290 / 81016.4 19.9 -0.0
2017-Mar-22 14:00S 36°48' E 174°42'0 0.0 300 / 101016.5 20.0 -0.0
2017-Mar-22 13:00S 36°48' E 174°42'0 0.0 290 / 61016.5 20.4 -0.0
2017-Mar-22 12:00S 36°48' E 174°42'0 0.0 290 / 61016.6 20.5 -0.0
2017-Mar-22 11:00S 36°48' E 174°42'0 0.0 290 / 61016.6 20.4 -0.0
2017-Mar-22 10:00S 36°48' E 174°42'0 0.0 290 / 61016.5 20.1 -0.0
2017-Mar-22 09:00S 36°48' E 174°42'0 0.0 290 / 71016.3 20.1 -0.0
2017-Mar-22 08:00S 36°48' E 174°42'0 0.0 300 / 101016.0 20.1 -0.0
2017-Mar-22 07:00S 36°48' E 174°42'0 0.0 290 / 111015.8 20.5 -0.0
2017-Mar-22 06:00S 36°48' E 174°42'0 0.0 300 / 131015.6 21.0 -0.0
2017-Mar-22 05:00S 36°48' E 174°42'0 0.0 280 / 101015.4 21.5 -0.0
2017-Mar-22 04:00S 36°48' E 174°42'0 0.0 240 / 101015.5 21.8 -0.0
2017-Mar-22 03:00S 36°48' E 174°42'0 0.0 250 / 101015.7 22.2 -0.0
2017-Mar-22 02:00S 36°48' E 174°42'0 0.0 250 / 81016.2 22.7 -0.0
2017-Mar-22 01:00S 36°48' E 174°42'0 0.0 240 / 101016.7 22.8 -0.0
2017-Mar-22 00:00S 36°48' E 174°42'0 0.0 250 / 81017.3 22.4 -0.0
2017-Mar-21 23:00S 36°48' E 174°42'0 0.0 240 / 111017.8 22.0 -0.0
2017-Mar-21 22:00S 36°48' E 174°42'0 0.0 250 / 91018.2 20.9 -0.0
2017-Mar-21 21:00S 36°48' E 174°42'0 0.0 270 / 61018.2 20.1 -0.0
2017-Mar-21 20:00S 36°48' E 174°42'0 0.0 280 / 61017.9 19.5 -0.0
2017-Mar-21 19:00S 36°48' E 174°42'0 0.0 260 / 51017.6 19.5 -0.0
2017-Mar-21 18:00S 36°48' E 174°42'0 0.0 270 / 51017.4 19.2 -0.0
2017-Mar-21 17:00S 36°48' E 174°42'0 0.0 260 / 61017.2 19.2 -0.0
2017-Mar-21 16:00S 36°48' E 174°42'0 0.0 240 / 61017.3 19.3 -0.0
2017-Mar-21 15:00S 36°48' E 174°42'0 0.0 240 / 61017.4 19.2 -0.0
2017-Mar-21 14:00S 36°48' E 174°42'0 0.0 230 / 81017.4 19.4 -0.0
2017-Mar-21 13:00S 36°48' E 174°42'0 0.0 230 / 101017.5 19.6 -0.0
2017-Mar-21 12:00S 36°48' E 174°42'0 0.0 240 / 71017.7 19.6 -0.0
2017-Mar-21 11:00S 36°48' E 174°42'0 0.0 240 / 81017.6 19.6 -0.0
2017-Mar-21 10:00S 36°48' E 174°42'0 0.0 240 / 101017.4 19.5 -0.0
2017-Mar-21 09:00S 36°48' E 174°42'0 0.0 250 / 91017.2 19.5 -0.0
2017-Mar-21 08:00S 36°48' E 174°42'0 0.0 260 / 71017.1 19.4 -0.0
2017-Mar-21 07:00S 36°48' E 174°42'0 0.0 260 / 91017.0 19.7 -0.0
2017-Mar-21 06:00S 36°48' E 174°42'0 0.0 250 / 101017.0 20.1 -0.0
2017-Mar-21 05:00S 36°48' E 174°42'0 0.0 260 / 121016.7 20.3 -0.0
2017-Mar-21 04:00S 36°48' E 174°42'0 0.0 250 / 121016.7 20.7 -0.0
2017-Mar-21 03:00S 36°48' E 174°42'0 0.0 260 / 111017.0 20.1 -0.0
2017-Mar-21 02:00S 36°48' E 174°42'0 0.0 260 / 111017.4 20.5 -0.0
2017-Mar-21 01:00S 36°48' E 174°42'0 0.0 250 / 111017.8 20.0 -0.0
2017-Mar-21 00:00S 36°48' E 174°42'0 0.0 260 / 91018.3 19.3 -0.0
2017-Mar-20 23:00S 36°48' E 174°42'0 0.0 260 / 101018.6 19.5 -0.0
2017-Mar-20 22:00S 36°48' E 174°42'29262925.9 260 / 91018.7 19.0 -0.0
2017-Mar-20 21:00S 25°06' E 119°30'2926112.5 290 / 6696.8 12.9 -0.0
2017-Mar-19 19:00S 36°48' E 174°42'0 0.0 310 / 31023.0 16.2 20.3
2017-Mar-19 18:00S 36°48' E 174°42'0 0.0 300 / 41022.9 16.3 20.3
2017-Mar-19 17:00S 36°48' E 174°42'0 0.0 290 / 51022.9 16.1 20.3
2017-Mar-19 16:00S 36°48' E 174°42'0 0.0 300 / 51023.0 16.5 20.3
2017-Mar-19 15:00S 36°48' E 174°42'0 0.0 300 / 61023.6 16.7 20.3
2017-Mar-19 14:00S 36°48' E 174°42'0 0.0 300 / 61023.9 17.2 20.3
2017-Mar-19 13:00S 36°48' E 174°42'0 0.0 280 / 31024.0 17.9 20.3
2017-Mar-19 12:00S 36°48' E 174°42'0 0.0 310 / 41024.1 18.0 20.3
2017-Mar-19 11:00S 36°48' E 174°42'0 0.0 220 / 11024.4 19.2 20.3
2017-Mar-19 10:00S 36°48' E 174°42'0 0.0 230 / 11024.6 19.4 20.3
2017-Mar-19 09:00S 36°48' E 174°42'0 0.0 230 / 21024.5 19.7 20.3
2017-Mar-19 08:00S 36°48' E 174°42'0 0.0 220 / 31024.5 19.9 20.3
2017-Mar-19 07:00S 36°48' E 174°42'0 0.0 240 / 71024.0 20.4 20.3
2017-Mar-19 06:00S 36°48' E 174°42'0 0.0 240 / 91023.8 21.2 20.3
2017-Mar-19 05:00S 36°48' E 174°42'0 0.0 230 / 71023.4 22.0 20.3
2017-Mar-19 04:00S 36°48' E 174°42'0 0.0 290 / 61023.5 22.2 20.3
2017-Mar-19 03:00S 36°48' E 174°42'0 0.0 360 / 31023.7 22.6 20.3
2017-Mar-19 02:00S 36°48' E 174°42'0 0.0 060 / 51024.0 22.0 20.3
2017-Mar-19 01:00S 36°48' E 174°42'0 0.0 020 / 41024.5 21.8 20.3
2017-Mar-19 00:00S 36°48' E 174°42'0 0.0 180 / 31025.1 21.2 20.3
2017-Mar-18 23:00S 36°48' E 174°42'0 0.0 150 / 51025.5 19.9 20.3
2017-Mar-18 22:00S 36°48' E 174°42'0 0.0 160 / 41025.6 19.8 20.3
2017-Mar-18 21:00S 36°48' E 174°42'0 0.0 180 / 21025.5 19.6 20.3
2017-Mar-18 20:00S 36°48' E 174°42'0 0.0 200 / 71025.2 17.6 20.3
2017-Mar-18 19:00S 36°48' E 174°42'0 0.0 210 / 51025.1 16.7 20.3
2017-Mar-18 18:00S 36°48' E 174°42'0 0.0 200 / 71024.7 16.9 20.3
2017-Mar-18 17:00S 36°48' E 174°42'4 8.8 190 / 71024.3 17.4 20.3
2017-Mar-18 16:29S 36°50' E 174°47'4 9.0
2017-Mar-18 16:00S 36°48' E 174°42'0 0.0 200 / 71024.3 17.6 20.3
2017-Mar-18 15:00S 36°48' E 174°42'4 4.9 200 / 41024.4 18.1 20.3
2017-Mar-18 14:05S 36°50' E 174°47'447.2
2017-Mar-18 14:00S 36°48' E 174°42'0 0.0 200 / 31024.5 18.3 20.3
2017-Mar-18 13:00S 36°48' E 174°42'0 0.0 220 / 21024.6 18.2 20.3
2017-Mar-18 12:00S 36°48' E 174°42'0 0.0 200 / 71024.7 18.6 20.3
2017-Mar-18 11:00S 36°48' E 174°42'0 0.0 220 / 61024.7 18.6 20.3
2017-Mar-18 10:00S 36°48' E 174°42'0 0.0 230 / 51024.1 18.6 20.3
2017-Mar-18 09:00S 36°48' E 174°42'0 0.0 240 / 51023.7 18.7 20.3
2017-Mar-18 08:00S 36°48' E 174°42'0 0.0 250 / 61023.1 19.0 20.3
2017-Mar-18 07:00S 36°48' E 174°42'0 0.0 250 / 81022.8 19.4 20.3
2017-Mar-18 06:00S 36°48' E 174°42'0 0.0 250 / 131022.7 19.8 20.3
2017-Mar-18 05:00S 36°48' E 174°42'0 0.0 240 / 151022.4 20.1 20.3
2017-Mar-18 04:00S 36°48' E 174°42'0 0.0 250 / 131022.3 20.4 20.3
2017-Mar-18 03:00S 36°48' E 174°42'0 0.0 250 / 111022.6 20.5 20.3
2017-Mar-18 02:00S 36°48' E 174°42'0 0.0 240 / 111023.2 20.8 20.3
2017-Mar-18 01:00S 36°48' E 174°42'0 0.0 250 / 111023.7 20.5 20.3
2017-Mar-18 00:00S 36°48' E 174°42'0 0.0 250 / 111024.4 20.1 20.3
2017-Mar-17 23:00S 36°48' E 174°42'0 0.0 240 / 111024.6 20.1 20.3
2017-Mar-17 22:00S 36°48' E 174°42'0 0.0 230 / 71024.5 20.3 20.3
2017-Mar-17 21:00S 36°48' E 174°42'0 0.0 220 / 51024.4 19.5 20.3
2017-Mar-17 20:00S 36°48' E 174°42'0 0.0 230 / 51024.7 18.6 20.3
2017-Mar-17 19:00S 36°48' E 174°42'0 0.0 240 / 41024.6 18.5 20.3
2017-Mar-17 18:00S 36°48' E 174°42'0 0.0 260 / 31024.6 18.4 20.3
2017-Mar-17 17:00S 36°48' E 174°42'0 0.0 250 / 41024.7 18.4 20.3
2017-Mar-17 16:00S 36°48' E 174°42'0 0.0 240 / 41025.0 18.6 20.3
2017-Mar-17 15:00S 36°48' E 174°42'0 0.0 280 / 51025.6 18.9 20.3
2017-Mar-17 14:00S 36°48' E 174°42'0 0.0 290 / 51026.2 18.9 20.3
2017-Mar-17 13:00S 36°48' E 174°42'0 0.0 290 / 61026.3 19.2 20.3
2017-Mar-17 12:00S 36°48' E 174°42'0 0.0 310 / 51026.5 19.6 20.3
2017-Mar-17 11:00S 36°48' E 174°42'0 0.0 060 / 11026.6 19.8 20.3
2017-Mar-17 10:00S 36°48' E 174°42'0 0.0 070 / 21026.7 20.0 20.3
2017-Mar-17 09:00S 36°48' E 174°42'0 0.0 120 / 31026.6 20.2 20.3
2017-Mar-17 08:00S 36°48' E 174°42'0 0.0 080 / 21026.4 20.3 20.3
2017-Mar-17 07:00S 36°48' E 174°42'0 0.0 050 / 31026.3 20.3 20.3
2017-Mar-17 06:00S 36°48' E 174°42'0 0.0 050 / 51026.4 20.7 20.3
2017-Mar-17 05:00S 36°48' E 174°42'0 0.0 040 / 61026.6 20.7 20.3
2017-Mar-17 04:00S 36°48' E 174°42'0 0.0 050 / 71026.6 21.1 20.3
2017-Mar-17 03:00S 36°48' E 174°42'0 0.0 060 / 71026.8 21.6 20.3
2017-Mar-17 02:00S 36°48' E 174°42'0 0.0 150 / 61027.3 21.3 20.3
2017-Mar-17 01:00S 36°48' E 174°42'0 0.0 130 / 81027.7 20.6 20.3
2017-Mar-17 00:00S 36°48' E 174°42'0 0.0 140 / 81028.0 20.0 20.3
2017-Mar-16 23:00S 36°48' E 174°42'0 0.0 150 / 61028.3 19.3 20.3
2017-Mar-16 22:00S 36°48' E 174°42'0 0.0 140 / 61028.6 18.8 20.3
2017-Mar-16 21:00S 36°48' E 174°42'0 0.0 160 / 61028.5 19.0 20.3
2017-Mar-16 20:00S 36°48' E 174°42'0 0.0 180 / 41028.4 18.6 20.3
2017-Mar-16 19:00S 36°48' E 174°42'0 0.0 200 / 21028.2 17.3 20.3
2017-Mar-16 18:00S 36°48' E 174°42'0 0.0 230 / 21028.0 17.4 20.3
2017-Mar-16 17:00S 36°48' E 174°42'0 0.0 210 / 21027.9 17.6 20.3
2017-Mar-16 16:00S 36°48' E 174°42'0 0.0 280 / 31027.9 17.7 20.3
2017-Mar-16 15:00S 36°48' E 174°42'0 0.0 200 / 41028.1 18.1 20.3
2017-Mar-16 14:00S 36°48' E 174°42'0 0.0 230 / 41028.1 18.3 20.3
2017-Mar-16 13:00S 36°48' E 174°42'0 0.0 290 / 41028.0 18.3 20.3
2017-Mar-16 12:00S 36°48' E 174°42'0 0.0 120 / 41028.0 18.7 20.3
2017-Mar-16 11:00S 36°48' E 174°42'0 0.0 100 / 41028.0 18.6 20.3
2017-Mar-16 10:00S 36°48' E 174°42'0 0.0 110 / 21027.9 19.0 20.3
2017-Mar-16 09:00S 36°48' E 174°42'0 0.0 070 / 21027.5 19.1 20.3
2017-Mar-16 08:00S 36°48' E 174°42'0 0.0 040 / 31026.8 19.2 20.3
2017-Mar-16 07:00S 36°48' E 174°42'0 0.0 040 / 51026.5 19.5 20.3
2017-Mar-16 06:00S 36°48' E 174°42'0 0.0 040 / 61026.2 20.0 20.3
2017-Mar-16 05:00S 36°48' E 174°42'0 0.0 030 / 61025.9 20.7 20.3
2017-Mar-16 04:00S 36°48' E 174°42'0 0.0 030 / 51025.9 20.5 20.3
2017-Mar-16 03:00S 36°48' E 174°42'0 0.0 020 / 61026.0 19.8 20.3
2017-Mar-16 02:00S 36°48' E 174°42'0 0.0 040 / 51026.5 20.0 20.3
2017-Mar-16 01:00S 36°48' E 174°42'0 0.0 080 / 71026.7 19.6 20.3
2017-Mar-16 00:00S 36°48' E 174°42'0 0.0 100 / 91027.0 18.9 20.3
2017-Mar-15 23:00S 36°48' E 174°42'0 0.0 090 / 71027.3 18.3 20.3
2017-Mar-15 22:00S 36°48' E 174°42'0 0.0 100 / 51027.4 18.1 20.3
2017-Mar-15 21:00S 36°48' E 174°42'0 0.0 150 / 51027.2 18.4 20.3
2017-Mar-15 20:00S 36°48' E 174°42'0 0.0 150 / 51027.1 16.5 20.3
2017-Mar-15 19:00S 36°48' E 174°42'0 0.0 160 / 71026.9 15.1 20.3
2017-Mar-15 18:00S 36°48' E 174°42'0 0.0 170 / 61026.5 14.9 20.3
2017-Mar-15 17:00S 36°48' E 174°42'0 0.0 160 / 61026.2 15.3 20.3
2017-Mar-15 16:00S 36°48' E 174°42'0 0.0 170 / 71026.3 15.4 20.3
2017-Mar-15 15:00S 36°48' E 174°42'0 0.0 160 / 61026.2 16.2 20.3
2017-Mar-15 14:00S 36°48' E 174°42'0 0.0 160 / 71026.0 16.8 20.3
2017-Mar-15 13:00S 36°48' E 174°42'0 0.0 160 / 91025.8 17.3 20.3
2017-Mar-15 12:00S 36°48' E 174°42'0 0.0 160 / 71025.2 18.2 20.3
2017-Mar-15 11:00S 36°48' E 174°42'0 0.0 160 / 51025.0 18.3 20.3
2017-Mar-15 10:00S 36°48' E 174°42'0 0.0 190 / 61024.8 18.3 20.3
2017-Mar-15 09:00S 36°48' E 174°42'0 0.0 190 / 71024.2 18.5 20.3
2017-Mar-15 08:00S 36°48' E 174°42'0 0.0 200 / 71023.4 18.8 20.3
2017-Mar-15 07:00S 36°48' E 174°42'0 0.0 200 / 71023.0 19.4 20.3
2017-Mar-15 06:00S 36°48' E 174°42'0 0.0 190 / 81022.6 20.9 20.3
2017-Mar-15 05:00S 36°48' E 174°42'0 0.0 160 / 91022.1 22.3 20.3
2017-Mar-15 04:00S 36°48' E 174°42'0 0.0 150 / 111022.1 22.8 20.3
2017-Mar-15 03:00S 36°48' E 174°42'0 0.0 170 / 91022.5 21.8 20.3
2017-Mar-15 02:00S 36°48' E 174°42'0 0.0 150 / 111022.9 22.1 20.3
2017-Mar-15 01:00S 36°48' E 174°42'0 0.0 160 / 121023.3 20.9 20.3
2017-Mar-15 00:00S 36°48' E 174°42'0 0.0 150 / 171023.4 20.8 20.3
2017-Mar-14 23:00S 36°48' E 174°42'0 0.0 160 / 181023.4 19.8 20.3
2017-Mar-14 22:00S 36°48' E 174°42'0 0.0 160 / 131023.2 18.0 20.3
2017-Mar-14 21:00S 36°48' E 174°42'0 0.0 170 / 91022.6 15.8 20.3
2017-Mar-14 20:00S 36°48' E 174°42'0 0.0 190 / 51022.2 14.8 20.3
2017-Mar-14 19:00S 36°48' E 174°42'0 0.0 180 / 71021.5 14.2 20.3
2017-Mar-14 18:00S 36°48' E 174°42'0 0.0 180 / 71020.8 14.5 20.3
2017-Mar-14 17:00S 36°48' E 174°42'0 0.0 180 / 81020.2 14.9 20.3
2017-Mar-14 16:00S 36°48' E 174°42'0 0.0 170 / 71019.5 15.5 20.3
2017-Mar-14 15:00S 36°48' E 174°42'0 0.0 180 / 61019.4 16.1 20.3
2017-Mar-14 14:00S 36°48' E 174°42'0 0.0 170 / 61019.1 17.1 20.3
2017-Mar-14 13:00S 36°48' E 174°42'0 0.0 190 / 61018.9 17.8 20.3
2017-Mar-14 12:00S 36°48' E 174°42'0 0.0 230 / 51018.8 17.5 20.3
2017-Mar-14 11:00S 36°48' E 174°42'0 0.0 250 / 51018.7 17.2 20.3
2017-Mar-14 10:00S 36°48' E 174°42'0 0.0 240 / 81018.4 17.4 20.3
2017-Mar-14 09:00S 36°48' E 174°42'0 0.0 230 / 71018.3 17.9 20.3
2017-Mar-14 08:00S 36°48' E 174°42'0 0.0 220 / 71017.8 18.0 20.3
2017-Mar-14 07:00S 36°48' E 174°42'0 0.0 230 / 91017.2 18.3 20.3
2017-Mar-14 06:00S 36°48' E 174°42'0 0.0 230 / 101017.2 18.3 20.3
2017-Mar-14 05:00S 36°48' E 174°42'0 0.0 220 / 141017.2 18.9 20.3
2017-Mar-14 04:00S 36°48' E 174°42'0 0.0 220 / 131017.2 19.3 20.3
2017-Mar-14 03:00S 36°48' E 174°42'0 0.0 210 / 131017.4 19.5 20.3
2017-Mar-14 02:00S 36°48' E 174°42'0 0.0 220 / 131017.7 19.5 20.3
2017-Mar-14 01:00S 36°48' E 174°42'0 0.0 230 / 121018.1 19.7 20.3
2017-Mar-14 00:00S 36°48' E 174°42'0 0.0 260 / 101018.6 18.9 20.3
2017-Mar-13 23:00S 36°48' E 174°42'5 4.8 240 / 141018.9 18.3 20.3
2017-Mar-13 22:00S 36°48' E 174°48'2 5.0 220 / 141018.4 19.3 20.3
2017-Mar-13 21:33S 36°50' E 174°48'814.4
2017-Mar-13 21:00S 36°42' E 174°48'3 6.7 250 / 141018.4 18.5 20.3
2017-Mar-13 20:33S 36°44' E 174°51'814.2
2017-Mar-13 20:00S 36°36' E 174°54'3 7.5 250 / 151018.2 18.1 20.3
2017-Mar-13 19:33S 36°39' E 174°55'916.1
2017-Mar-13 19:00S 36°30' E 174°54'716.7 260 / 141017.7 18.3 20.3
2017-Mar-13 18:33S 36°35' E 175°01'5 8.5
2017-Mar-13 18:00S 36°30' E 175°00'511.0 260 / 121017.3 17.8 20.3
2017-Mar-13 17:33S 36°35' E 175°01'1120.2
2017-Mar-13 17:00S 36°24' E 175°06'   240 / 171017.5 17.6 20.3
Track history (hours):
 
Tides and Currents Weather Stations Pressure Air Temp Water Temp Dewpoint Dewpoint Depression Visibility Wind Speed Wind Dir Waves Ship Positions

Oceanographic research ship Nathaniel B. Palmer (USA)

Contact: Ethan Norris, ethan.norris.contractor@usap.gov

Detailed information on ship capabilities available from University of Delaware's Ocean Information Center and ARCUS's ALIAS (Arctic Logistics Information and Support) project.

Owner: OFFSHORE SERVICE VESSELS, GALLIANO, LA. More information available from US FCC via Universal Licensing System and Coast Guard Vessel Documentation Center.

Last reported at 2017-Mar-23 17:00 UTC. Time now 2017-Mar-23 18:14 UTC.
Position S 36°48' E 174°42'.

Type: Other ship. MMSI: 366610000.

Wind from 250 at 2 knots

Barometer 1018.3 mb
Air temperature 17.8 ° C
Water temperature -0.0 ° C

Date/timePositionNaut miles runAvg speedWind from/ knotsBaromVisibWave heightAir tempDewpointWater temp
2017-Mar-23 17:00S 36°48' E 174°42'0 0.0 250 / 21018.3 17.8 -0.0
2017-Mar-23 16:00S 36°48' E 174°42'0 0.0 280 / 41018.4 17.6 -0.0
2017-Mar-23 15:00S 36°48' E 174°42'0 0.0 220 / 21018.6 18.1 -0.0
2017-Mar-23 14:00S 36°48' E 174°42'0 0.0 280 / 21019.2 17.7 -0.0
2017-Mar-23 13:00S 36°48' E 174°42'0 0.0 290 / 31019.3 17.8 -0.0
2017-Mar-23 12:00S 36°48' E 174°42'0 0.0 290 / 41019.6 18.0 -0.0
2017-Mar-23 11:00S 36°48' E 174°42'0 0.0 250 / 31019.7 18.4 -0.0
2017-Mar-23 10:00S 36°48' E 174°42'0 0.0 230 / 41019.5 18.7 -0.0
2017-Mar-23 09:00S 36°48' E 174°42'0 0.0 240 / 51019.2 19.0 -0.0
2017-Mar-23 08:00S 36°48' E 174°42'0 0.0 240 / 61018.6 19.3 -0.0
2017-Mar-23 07:00S 36°48' E 174°42'0 0.0 240 / 81018.1 20.1 -0.0
2017-Mar-23 06:00S 36°48' E 174°42'0 0.0 240 / 81017.7 21.5 -0.0
2017-Mar-23 05:00S 36°48' E 174°42'0 0.0 250 / 101017.3 21.6 -0.0
2017-Mar-23 04:00S 36°48' E 174°42'0 0.0 240 / 101017.4 22.0 -0.0
2017-Mar-23 03:00S 36°48' E 174°42'0 0.0 240 / 91017.7 22.1 -0.0
2017-Mar-23 02:00S 36°48' E 174°42'0 0.0 230 / 101018.0 21.8 -0.0
2017-Mar-23 00:00S 36°48' E 174°42'0 0.0 240 / 101018.4 21.8 -0.0
2017-Mar-22 23:00S 36°48' E 174°42'0 0.0 260 / 61018.4 21.1 -0.0
2017-Mar-22 22:00S 36°48' E 174°42'0 0.0 270 / 81018.0 20.4 -0.0
2017-Mar-22 21:00S 36°48' E 174°42'0 0.0 300 / 91017.8 20.1 -0.0
2017-Mar-22 20:00S 36°48' E 174°42'0 0.0 290 / 81017.4 20.1 -0.0
2017-Mar-22 19:00S 36°48' E 174°42'0 0.0 300 / 101016.8 19.5 -0.0
2017-Mar-22 18:00S 36°48' E 174°42'0 0.0 310 / 101016.5 19.9 -0.0
2017-Mar-22 17:00S 36°48' E 174°42'0 0.0 300 / 71016.4 19.9 -0.0
2017-Mar-22 16:00S 36°48' E 174°42'0 0.0 290 / 71016.4 19.6 -0.0
2017-Mar-22 15:00S 36°48' E 174°42'0 0.0 290 / 81016.4 19.9 -0.0
2017-Mar-22 14:00S 36°48' E 174°42'0 0.0 300 / 101016.5 20.0 -0.0
2017-Mar-22 13:00S 36°48' E 174°42'0 0.0 290 / 61016.5 20.4 -0.0
2017-Mar-22 12:00S 36°48' E 174°42'0 0.0 290 / 61016.6 20.5 -0.0
2017-Mar-22 11:00S 36°48' E 174°42'0 0.0 290 / 61016.6 20.4 -0.0
2017-Mar-22 10:00S 36°48' E 174°42'0 0.0 290 / 61016.5 20.1 -0.0
2017-Mar-22 09:00S 36°48' E 174°42'0 0.0 290 / 71016.3 20.1 -0.0
2017-Mar-22 08:00S 36°48' E 174°42'0 0.0 300 / 101016.0 20.1 -0.0
2017-Mar-22 07:00S 36°48' E 174°42'0 0.0 290 / 111015.8 20.5 -0.0
2017-Mar-22 06:00S 36°48' E 174°42'0 0.0 300 / 131015.6 21.0 -0.0
2017-Mar-22 05:00S 36°48' E 174°42'0 0.0 280 / 101015.4 21.5 -0.0
2017-Mar-22 04:00S 36°48' E 174°42'0 0.0 240 / 101015.5 21.8 -0.0
2017-Mar-22 03:00S 36°48' E 174°42'0 0.0 250 / 101015.7 22.2 -0.0
2017-Mar-22 02:00S 36°48' E 174°42'0 0.0 250 / 81016.2 22.7 -0.0
2017-Mar-22 01:00S 36°48' E 174°42'0 0.0 240 / 101016.7 22.8 -0.0
2017-Mar-22 00:00S 36°48' E 174°42'0 0.0 250 / 81017.3 22.4 -0.0
2017-Mar-21 23:00S 36°48' E 174°42'0 0.0 240 / 111017.8 22.0 -0.0
2017-Mar-21 22:00S 36°48' E 174°42'0 0.0 250 / 91018.2 20.9 -0.0
2017-Mar-21 21:00S 36°48' E 174°42'0 0.0 270 / 61018.2 20.1 -0.0
2017-Mar-21 20:00S 36°48' E 174°42'0 0.0 280 / 61017.9 19.5 -0.0
2017-Mar-21 19:00S 36°48' E 174°42'0 0.0 260 / 51017.6 19.5 -0.0
2017-Mar-21 18:00S 36°48' E 174°42'0 0.0 270 / 51017.4 19.2 -0.0
2017-Mar-21 17:00S 36°48' E 174°42'0 0.0 260 / 61017.2 19.2 -0.0
2017-Mar-21 16:00S 36°48' E 174°42'0 0.0 240 / 61017.3 19.3 -0.0
2017-Mar-21 15:00S 36°48' E 174°42'0 0.0 240 / 61017.4 19.2 -0.0
2017-Mar-21 14:00S 36°48' E 174°42'0 0.0 230 / 81017.4 19.4 -0.0
2017-Mar-21 13:00S 36°48' E 174°42'0 0.0 230 / 101017.5 19.6 -0.0
2017-Mar-21 12:00S 36°48' E 174°42'0 0.0 240 / 71017.7 19.6 -0.0
2017-Mar-21 11:00S 36°48' E 174°42'0 0.0 240 / 81017.6 19.6 -0.0
2017-Mar-21 10:00S 36°48' E 174°42'0 0.0 240 / 101017.4 19.5 -0.0
2017-Mar-21 09:00S 36°48' E 174°42'0 0.0 250 / 91017.2 19.5 -0.0
2017-Mar-21 08:00S 36°48' E 174°42'0 0.0 260 / 71017.1 19.4 -0.0
2017-Mar-21 07:00S 36°48' E 174°42'0 0.0 260 / 91017.0 19.7 -0.0
2017-Mar-21 06:00S 36°48' E 174°42'0 0.0 250 / 101017.0 20.1 -0.0
2017-Mar-21 05:00S 36°48' E 174°42'0 0.0 260 / 121016.7 20.3 -0.0
2017-Mar-21 04:00S 36°48' E 174°42'0 0.0 250 / 121016.7 20.7 -0.0
2017-Mar-21 03:00S 36°48' E 174°42'0 0.0 260 / 111017.0 20.1 -0.0
2017-Mar-21 02:00S 36°48' E 174°42'0 0.0 260 / 111017.4 20.5 -0.0
2017-Mar-21 01:00S 36°48' E 174°42'0 0.0 250 / 111017.8 20.0 -0.0
2017-Mar-21 00:00S 36°48' E 174°42'0 0.0 260 / 91018.3 19.3 -0.0
2017-Mar-20 23:00S 36°48' E 174°42'0 0.0 260 / 101018.6 19.5 -0.0
2017-Mar-20 22:00S 36°48' E 174°42'29262925.9 260 / 91018.7 19.0 -0.0
2017-Mar-20 21:00S 25°06' E 119°30'2926112.5 290 / 6696.8 12.9 -0.0
2017-Mar-19 19:00S 36°48' E 174°42'0 0.0 310 / 31023.0 16.2 20.3
2017-Mar-19 18:00S 36°48' E 174°42'0 0.0 300 / 41022.9 16.3 20.3
2017-Mar-19 17:00S 36°48' E 174°42'0 0.0 290 / 51022.9 16.1 20.3
2017-Mar-19 16:00S 36°48' E 174°42'0 0.0 300 / 51023.0 16.5 20.3
2017-Mar-19 15:00S 36°48' E 174°42'0 0.0 300 / 61023.6 16.7 20.3
2017-Mar-19 14:00S 36°48' E 174°42'0 0.0 300 / 61023.9 17.2 20.3
2017-Mar-19 13:00S 36°48' E 174°42'0 0.0 280 / 31024.0 17.9 20.3
2017-Mar-19 12:00S 36°48' E 174°42'0 0.0 310 / 41024.1 18.0 20.3
2017-Mar-19 11:00S 36°48' E 174°42'0 0.0 220 / 11024.4 19.2 20.3
2017-Mar-19 10:00S 36°48' E 174°42'0 0.0 230 / 11024.6 19.4 20.3
2017-Mar-19 09:00S 36°48' E 174°42'0 0.0 230 / 21024.5 19.7 20.3
2017-Mar-19 08:00S 36°48' E 174°42'0 0.0 220 / 31024.5 19.9 20.3
2017-Mar-19 07:00S 36°48' E 174°42'0 0.0 240 / 71024.0 20.4 20.3
2017-Mar-19 06:00S 36°48' E 174°42'0 0.0 240 / 91023.8 21.2 20.3
2017-Mar-19 05:00S 36°48' E 174°42'0 0.0 230 / 71023.4 22.0 20.3
2017-Mar-19 04:00S 36°48' E 174°42'0 0.0 290 / 61023.5 22.2 20.3
2017-Mar-19 03:00S 36°48' E 174°42'0 0.0 360 / 31023.7 22.6 20.3
2017-Mar-19 02:00S 36°48' E 174°42'0 0.0 060 / 51024.0 22.0 20.3
2017-Mar-19 01:00S 36°48' E 174°42'0 0.0 020 / 41024.5 21.8 20.3
2017-Mar-19 00:00S 36°48' E 174°42'0 0.0 180 / 31025.1 21.2 20.3
2017-Mar-18 23:00S 36°48' E 174°42'0 0.0 150 / 51025.5 19.9 20.3
2017-Mar-18 22:00S 36°48' E 174°42'0 0.0 160 / 41025.6 19.8 20.3
2017-Mar-18 21:00S 36°48' E 174°42'0 0.0 180 / 21025.5 19.6 20.3
2017-Mar-18 20:00S 36°48' E 174°42'0 0.0 200 / 71025.2 17.6 20.3
2017-Mar-18 19:00S 36°48' E 174°42'0 0.0 210 / 51025.1 16.7 20.3
2017-Mar-18 18:00S 36°48' E 174°42'0 0.0 200 / 71024.7 16.9 20.3
2017-Mar-18 17:00S 36°48' E 174°42'4 8.8 190 / 71024.3 17.4 20.3
2017-Mar-18 16:29S 36°50' E 174°47'4 9.0
2017-Mar-18 16:00S 36°48' E 174°42'0 0.0 200 / 71024.3 17.6 20.3
2017-Mar-18 15:00S 36°48' E 174°42'4 4.9 200 / 41024.4 18.1 20.3
2017-Mar-18 14:05S 36°50' E 174°47'447.2
2017-Mar-18 14:00S 36°48' E 174°42'0 0.0 200 / 31024.5 18.3 20.3
2017-Mar-18 13:00S 36°48' E 174°42'0 0.0 220 / 21024.6 18.2 20.3
2017-Mar-18 12:00S 36°48' E 174°42'0 0.0 200 / 71024.7 18.6 20.3
2017-Mar-18 11:00S 36°48' E 174°42'0 0.0 220 / 61024.7 18.6 20.3
2017-Mar-18 10:00S 36°48' E 174°42'0 0.0 230 / 51024.1 18.6 20.3
2017-Mar-18 09:00S 36°48' E 174°42'0 0.0 240 / 51023.7 18.7 20.3
2017-Mar-18 08:00S 36°48' E 174°42'0 0.0 250 / 61023.1 19.0 20.3
2017-Mar-18 07:00S 36°48' E 174°42'0 0.0 250 / 81022.8 19.4 20.3
2017-Mar-18 06:00S 36°48' E 174°42'0 0.0 250 / 131022.7 19.8 20.3
2017-Mar-18 05:00S 36°48' E 174°42'0 0.0 240 / 151022.4 20.1 20.3
2017-Mar-18 04:00S 36°48' E 174°42'0 0.0 250 / 131022.3 20.4 20.3
2017-Mar-18 03:00S 36°48' E 174°42'0 0.0 250 / 111022.6 20.5 20.3
2017-Mar-18 02:00S 36°48' E 174°42'0 0.0 240 / 111023.2 20.8 20.3
2017-Mar-18 01:00S 36°48' E 174°42'0 0.0 250 / 111023.7 20.5 20.3
2017-Mar-18 00:00S 36°48' E 174°42'0 0.0 250 / 111024.4 20.1 20.3
2017-Mar-17 23:00S 36°48' E 174°42'0 0.0 240 / 111024.6 20.1 20.3
2017-Mar-17 22:00S 36°48' E 174°42'0 0.0 230 / 71024.5 20.3 20.3
2017-Mar-17 21:00S 36°48' E 174°42'0 0.0 220 / 51024.4 19.5 20.3
2017-Mar-17 20:00S 36°48' E 174°42'0 0.0 230 / 51024.7 18.6 20.3
2017-Mar-17 19:00S 36°48' E 174°42'0 0.0 240 / 41024.6 18.5 20.3
2017-Mar-17 18:00S 36°48' E 174°42'0 0.0 260 / 31024.6 18.4 20.3
2017-Mar-17 17:00S 36°48' E 174°42'0 0.0 250 / 41024.7 18.4 20.3
2017-Mar-17 16:00S 36°48' E 174°42'0 0.0 240 / 41025.0 18.6 20.3
2017-Mar-17 15:00S 36°48' E 174°42'0 0.0 280 / 51025.6 18.9 20.3
2017-Mar-17 14:00S 36°48' E 174°42'0 0.0 290 / 51026.2 18.9 20.3
2017-Mar-17 13:00S 36°48' E 174°42'0 0.0 290 / 61026.3 19.2 20.3
2017-Mar-17 12:00S 36°48' E 174°42'0 0.0 310 / 51026.5 19.6 20.3
2017-Mar-17 11:00S 36°48' E 174°42'0 0.0 060 / 11026.6 19.8 20.3
2017-Mar-17 10:00S 36°48' E 174°42'0 0.0 070 / 21026.7 20.0 20.3
2017-Mar-17 09:00S 36°48' E 174°42'0 0.0 120 / 31026.6 20.2 20.3
2017-Mar-17 08:00S 36°48' E 174°42'0 0.0 080 / 21026.4 20.3 20.3
2017-Mar-17 07:00S 36°48' E 174°42'0 0.0 050 / 31026.3 20.3 20.3
2017-Mar-17 06:00S 36°48' E 174°42'0 0.0 050 / 51026.4 20.7 20.3
2017-Mar-17 05:00S 36°48' E 174°42'0 0.0 040 / 61026.6 20.7 20.3
2017-Mar-17 04:00S 36°48' E 174°42'0 0.0 050 / 71026.6 21.1 20.3
2017-Mar-17 03:00S 36°48' E 174°42'0 0.0 060 / 71026.8 21.6 20.3
2017-Mar-17 02:00S 36°48' E 174°42'0 0.0 150 / 61027.3 21.3 20.3
2017-Mar-17 01:00S 36°48' E 174°42'0 0.0 130 / 81027.7 20.6 20.3
2017-Mar-17 00:00S 36°48' E 174°42'0 0.0 140 / 81028.0 20.0 20.3
2017-Mar-16 23:00S 36°48' E 174°42'0 0.0 150 / 61028.3 19.3 20.3
2017-Mar-16 22:00S 36°48' E 174°42'0 0.0 140 / 61028.6 18.8 20.3
2017-Mar-16 21:00S 36°48' E 174°42'0 0.0 160 / 61028.5 19.0 20.3
2017-Mar-16 20:00S 36°48' E 174°42'0 0.0 180 / 41028.4 18.6 20.3
2017-Mar-16 19:00S 36°48' E 174°42'0 0.0 200 / 21028.2 17.3 20.3
2017-Mar-16 18:00S 36°48' E 174°42'0 0.0 230 / 21028.0 17.4 20.3
2017-Mar-16 17:00S 36°48' E 174°42'0 0.0 210 / 21027.9 17.6 20.3
2017-Mar-16 16:00S 36°48' E 174°42'0 0.0 280 / 31027.9 17.7 20.3
2017-Mar-16 15:00S 36°48' E 174°42'0 0.0 200 / 41028.1 18.1 20.3
2017-Mar-16 14:00S 36°48' E 174°42'0 0.0 230 / 41028.1 18.3 20.3
2017-Mar-16 13:00S 36°48' E 174°42'0 0.0 290 / 41028.0 18.3 20.3
2017-Mar-16 12:00S 36°48' E 174°42'0 0.0 120 / 41028.0 18.7 20.3
2017-Mar-16 11:00S 36°48' E 174°42'0 0.0 100 / 41028.0 18.6 20.3
2017-Mar-16 10:00S 36°48' E 174°42'0 0.0 110 / 21027.9 19.0 20.3
2017-Mar-16 09:00S 36°48' E 174°42'0 0.0 070 / 21027.5 19.1 20.3
2017-Mar-16 08:00S 36°48' E 174°42'0 0.0 040 / 31026.8 19.2 20.3
2017-Mar-16 07:00S 36°48' E 174°42'0 0.0 040 / 51026.5 19.5 20.3
2017-Mar-16 06:00S 36°48' E 174°42'0 0.0 040 / 61026.2 20.0 20.3
2017-Mar-16 05:00S 36°48' E 174°42'0 0.0 030 / 61025.9 20.7 20.3
2017-Mar-16 04:00S 36°48' E 174°42'0 0.0 030 / 51025.9 20.5 20.3
2017-Mar-16 03:00S 36°48' E 174°42'0 0.0 020 / 61026.0 19.8 20.3
2017-Mar-16 02:00S 36°48' E 174°42'0 0.0 040 / 51026.5 20.0 20.3
2017-Mar-16 01:00S 36°48' E 174°42'0 0.0 080 / 71026.7 19.6 20.3
2017-Mar-16 00:00S 36°48' E 174°42'0 0.0 100 / 91027.0 18.9 20.3
2017-Mar-15 23:00S 36°48' E 174°42'0 0.0 090 / 71027.3 18.3 20.3
2017-Mar-15 22:00S 36°48' E 174°42'0 0.0 100 / 51027.4 18.1 20.3
2017-Mar-15 21:00S 36°48' E 174°42'0 0.0 150 / 51027.2 18.4 20.3
2017-Mar-15 20:00S 36°48' E 174°42'0 0.0 150 / 51027.1 16.5 20.3
2017-Mar-15 19:00S 36°48' E 174°42'0 0.0 160 / 71026.9 15.1 20.3
2017-Mar-15 18:00S 36°48' E 174°42'0 0.0 170 / 61026.5 14.9 20.3
2017-Mar-15 17:00S 36°48' E 174°42'0 0.0 160 / 61026.2 15.3 20.3
2017-Mar-15 16:00S 36°48' E 174°42'0 0.0 170 / 71026.3 15.4 20.3
2017-Mar-15 15:00S 36°48' E 174°42'0 0.0 160 / 61026.2 16.2 20.3
2017-Mar-15 14:00S 36°48' E 174°42'0 0.0 160 / 71026.0 16.8 20.3
2017-Mar-15 13:00S 36°48' E 174°42'0 0.0 160 / 91025.8 17.3 20.3
2017-Mar-15 12:00S 36°48' E 174°42'0 0.0 160 / 71025.2 18.2 20.3
2017-Mar-15 11:00S 36°48' E 174°42'0 0.0 160 / 51025.0 18.3 20.3
2017-Mar-15 10:00S 36°48' E 174°42'0 0.0 190 / 61024.8 18.3 20.3
2017-Mar-15 09:00S 36°48' E 174°42'0 0.0 190 / 71024.2 18.5 20.3
2017-Mar-15 08:00S 36°48' E 174°42'0 0.0 200 / 71023.4 18.8 20.3
2017-Mar-15 07:00S 36°48' E 174°42'0 0.0 200 / 71023.0 19.4 20.3
2017-Mar-15 06:00S 36°48' E 174°42'0 0.0 190 / 81022.6 20.9 20.3
2017-Mar-15 05:00S 36°48' E 174°42'0 0.0 160 / 91022.1 22.3 20.3
2017-Mar-15 04:00S 36°48' E 174°42'0 0.0 150 / 111022.1 22.8 20.3
2017-Mar-15 03:00S 36°48' E 174°42'0 0.0 170 / 91022.5 21.8 20.3
2017-Mar-15 02:00S 36°48' E 174°42'0 0.0 150 / 111022.9 22.1 20.3
2017-Mar-15 01:00S 36°48' E 174°42'0 0.0 160 / 121023.3 20.9 20.3
2017-Mar-15 00:00S 36°48' E 174°42'0 0.0 150 / 171023.4 20.8 20.3
2017-Mar-14 23:00S 36°48' E 174°42'0 0.0 160 / 181023.4 19.8 20.3
2017-Mar-14 22:00S 36°48' E 174°42'0 0.0 160 / 131023.2 18.0 20.3
2017-Mar-14 21:00S 36°48' E 174°42'0 0.0 170 / 91022.6 15.8 20.3
2017-Mar-14 20:00S 36°48' E 174°42'0 0.0 190 / 51022.2 14.8 20.3
2017-Mar-14 19:00S 36°48' E 174°42'0 0.0 180 / 71021.5 14.2 20.3
2017-Mar-14 18:00S 36°48' E 174°42'0 0.0 180 / 71020.8 14.5 20.3
2017-Mar-14 17:00S 36°48' E 174°42'0 0.0 180 / 81020.2 14.9 20.3
2017-Mar-14 16:00S 36°48' E 174°42'0 0.0 170 / 71019.5 15.5 20.3
2017-Mar-14 15:00S 36°48' E 174°42'0 0.0 180 / 61019.4 16.1 20.3
2017-Mar-14 14:00S 36°48' E 174°42'0 0.0 170 / 61019.1 17.1 20.3
2017-Mar-14 13:00S 36°48' E 174°42'0 0.0 190 / 61018.9 17.8 20.3
2017-Mar-14 12:00S 36°48' E 174°42'0 0.0 230 / 51018.8 17.5 20.3
2017-Mar-14 11:00S 36°48' E 174°42'0 0.0 250 / 51018.7 17.2 20.3
2017-Mar-14 10:00S 36°48' E 174°42'0 0.0 240 / 81018.4 17.4 20.3
2017-Mar-14 09:00S 36°48' E 174°42'0 0.0 230 / 71018.3 17.9 20.3
2017-Mar-14 08:00S 36°48' E 174°42'0 0.0 220 / 71017.8 18.0 20.3
2017-Mar-14 07:00S 36°48' E 174°42'0 0.0 230 / 91017.2 18.3 20.3
2017-Mar-14 06:00S 36°48' E 174°42'0 0.0 230 / 101017.2 18.3 20.3
2017-Mar-14 05:00S 36°48' E 174°42'0 0.0 220 / 141017.2 18.9 20.3
2017-Mar-14 04:00S 36°48' E 174°42'0 0.0 220 / 131017.2 19.3 20.3
2017-Mar-14 03:00S 36°48' E 174°42'0 0.0 210 / 131017.4 19.5 20.3
2017-Mar-14 02:00S 36°48' E 174°42'0 0.0 220 / 131017.7 19.5 20.3
2017-Mar-14 01:00S 36°48' E 174°42'0 0.0 230 / 121018.1 19.7 20.3
2017-Mar-14 00:00S 36°48' E 174°42'0 0.0 260 / 101018.6 18.9 20.3
2017-Mar-13 23:00S 36°48' E 174°42'5 4.8 240 / 141018.9 18.3 20.3
2017-Mar-13 22:00S 36°48' E 174°48'2 5.0 220 / 141018.4 19.3 20.3
2017-Mar-13 21:33S 36°50' E 174°48'814.4
2017-Mar-13 21:00S 36°42' E 174°48'3 6.7 250 / 141018.4 18.5 20.3
2017-Mar-13 20:33S 36°44' E 174°51'814.2
2017-Mar-13 20:00S 36°36' E 174°54'3 7.5 250 / 151018.2 18.1 20.3
2017-Mar-13 19:33S 36°39' E 174°55'916.1
2017-Mar-13 19:00S 36°30' E 174°54'716.7 260 / 141017.7 18.3 20.3
2017-Mar-13 18:33S 36°35' E 175°01'5 8.5
2017-Mar-13 18:00S 36°30' E 175°00'511.0 260 / 121017.3 17.8 20.3
2017-Mar-13 17:33S 36°35' E 175°01'1120.2
2017-Mar-13 17:00S 36°24' E 175°06'   240 / 171017.5 17.6 20.3

Dump ship's entire track history